createdAt,value
2019-03-12T00:01:17.178Z,3.17
2019-03-12T00:03:48.623Z,3.87
2019-03-12T00:06:19.852Z,3.25
2019-03-12T00:08:51.227Z,3.45
2019-03-12T00:11:22.466Z,2.50
2019-03-12T00:13:53.710Z,2.20
2019-03-12T00:16:24.898Z,1.77
2019-03-12T00:18:56.248Z,1.77
2019-03-12T00:21:27.541Z,1.35
2019-03-12T00:23:59.260Z,1.10
2019-03-12T00:26:30.740Z,1.60
2019-03-12T00:29:02.265Z,1.05
2019-03-12T00:31:34.018Z,1.10
2019-03-12T00:34:05.607Z,1.20
2019-03-12T00:36:37.288Z,1.10
2019-03-12T00:39:08.924Z,1.20
2019-03-12T00:41:41.958Z,1.10
2019-03-12T00:44:13.406Z,1.20
2019-03-12T00:46:44.592Z,1.45
2019-03-12T00:49:16.056Z,1.00
2019-03-12T00:51:47.641Z,1.22
2019-03-12T00:54:19.278Z,1.05
2019-03-12T00:56:50.608Z,0.95
2019-03-12T00:59:22.082Z,1.22
2019-03-12T01:01:53.676Z,1.60
2019-03-12T01:04:25.026Z,1.20
2019-03-12T01:06:56.376Z,1.20
2019-03-12T01:09:27.890Z,1.30
2019-03-12T01:11:59.645Z,1.47
2019-03-12T01:14:31.096Z,1.22
2019-03-12T01:17:02.628Z,1.67
2019-03-12T01:19:33.875Z,1.47
2019-03-12T01:22:05.469Z,1.17
2019-03-12T01:24:36.800Z,1.07
2019-03-12T01:27:08.484Z,1.00
2019-03-12T01:29:40.212Z,1.30
2019-03-12T01:32:11.863Z,1.12
2019-03-12T01:34:43.066Z,1.30
2019-03-12T01:37:14.335Z,1.22
2019-03-12T01:39:45.764Z,1.22
2019-03-12T01:42:17.026Z,1.40
2019-03-12T01:44:48.637Z,1.15
2019-03-12T01:47:20.166Z,0.93
2019-03-12T01:49:51.713Z,1.00
2019-03-12T01:52:23.333Z,0.75
2019-03-12T01:54:54.810Z,1.00
2019-03-12T01:57:26.384Z,0.70
2019-03-12T01:59:57.730Z,0.70
2019-03-12T02:02:29.262Z,0.72
2019-03-12T02:05:00.859Z,0.57
2019-03-12T02:07:32.101Z,0.60
2019-03-12T02:10:03.612Z,0.40
2019-03-12T02:12:35.424Z,0.45
2019-03-12T02:15:08.588Z,0.60
2019-03-12T02:17:40.085Z,0.57
2019-03-12T02:20:13.654Z,0.50
2019-03-12T02:22:45.365Z,0.70
2019-03-12T02:25:17.519Z,0.60
2019-03-12T02:27:49.224Z,0.47
2019-03-12T02:30:21.211Z,0.30
2019-03-12T02:32:52.474Z,0.35
2019-03-12T02:35:24.111Z,0.40
2019-03-12T02:37:55.735Z,0.30
2019-03-12T02:40:27.365Z,0.40
2019-03-12T02:42:58.590Z,0.50
2019-03-12T02:45:29.959Z,0.70
2019-03-12T02:48:01.426Z,0.53
2019-03-12T02:50:32.933Z,0.80
2019-03-12T02:53:04.345Z,0.80
2019-03-12T02:55:35.571Z,0.65
2019-03-12T02:58:06.892Z,0.90
2019-03-12T03:00:38.276Z,0.80
2019-03-12T03:03:09.721Z,0.70
2019-03-12T03:05:57.264Z,0.62
2019-03-12T03:08:31.095Z,0.93
2019-03-12T03:11:02.524Z,0.72
2019-03-12T03:13:34.009Z,0.70
2019-03-12T03:16:05.590Z,0.65
2019-03-12T03:18:36.877Z,0.90
2019-03-12T03:21:08.145Z,0.65
2019-03-12T03:23:39.385Z,0.70
2019-03-12T03:26:10.727Z,0.70
2019-03-12T03:28:42.075Z,0.93
2019-03-12T03:31:13.540Z,0.95
2019-03-12T03:33:45.008Z,0.90
2019-03-12T03:36:16.377Z,1.10
2019-03-12T03:38:47.748Z,1.30
2019-03-12T03:41:19.616Z,1.20
2019-03-12T03:43:51.378Z,0.93
2019-03-12T03:46:23.107Z,1.12
